Terminal Aerodrome Forecast
Issued by NWS

Home | Current Version | Previous Version | Text Only | Print | Product List | Glossary On
Versions: 1 2 3 4 5 6 7 8 9 10 11 12 13 14 15 16 17
000
FTUS46 KSGX 010500
TAFSNA
TAF
KSNA 010520Z 0106/0206 17006KT P6SM SCT012
     FM010700 18006KT P6SM OVC012
     FM011700 20006KT P6SM SCT015
     FM012000 22010KT P6SM FEW017
     FM020400 VRB05KT P6SM BKN015=

USA.gov is the U.S. government's official web portal to all federal, state and local government web resources and services.